Stations météo

réclame
Mon MeteoGroup
Luchon/SA, France (7724): Température de l'air & dewpoint: 12.01.2020 14:00:00 - 18.01.2020 14:00:00 (CET)Luchon/SA, France (7724): Vitesse du vent & gusts: 12.01.2020 14:00:00 - 18.01.2020 14:00:00 (CET)Luchon/SA, France (7724): Direction du vent: 12.01.2020 14:00:00 - 18.01.2020 14:00:00 (CET)Luchon/SA, France (7724): Quantités de précipitations: 12.01.2020 14:00:00 - 18.01.2020 14:00:00 (CET)
Date & Time tt [°C] td [°C] ff [km/h] ff [knt] fx [km/h] fx [knt] dd rr [mm]
18.01.2020 14:00:00 - - - - - - - -
18.01.2020 13:00:00 8,3 0,7 2 1 9 5 W -
18.01.2020 12:00:00 5,7 2,2 4 2 16 9 NNE 0,0
18.01.2020 11:00:00 2,2 1,8 4 2 8 4 E 0,0
18.01.2020 10:00:00 0,4 0,0 0 0 4 2 N 0,0
18.01.2020 09:00:00 0,1 -0,3 4 2 11 6 S 0,0
18.01.2020 08:00:00 -0,1 -0,7 4 2 15 8 N 0,0
18.01.2020 07:00:00 -0,7 -1,0 8 4 13 7 S -
18.01.2020 06:00:00 -1,3 -1,6 2 1 5 3 NNW 0,0
18.01.2020 05:00:00 -1,3 -1,6 4 2 8 4 NNW 0,0
18.01.2020 04:00:00 -1,9 -2,5 4 2 11 6 NNE 0,0
18.01.2020 03:00:00 -1,4 -1,7 2 1 8 4 NNW 0,0
18.01.2020 02:00:00 -1,9 -2,2 0 0 5 3 N 0,0
18.01.2020 01:00:00 -1,1 -1,5 4 2 8 4 SW -
18.01.2020 00:00:00 -0,3 -0,6 0 0 4 2 N 0,0
17.01.2020 23:00:00 -0,2 -0,6 0 0 8 4 N 0,0
17.01.2020 22:00:00 1,3 0,9 2 1 8 4 SW 0,0
17.01.2020 21:00:00 1,6 1,2 2 1 8 4 N 0,0
17.01.2020 20:00:00 2,3 1,9 4 2 13 7 SW 0,0
17.01.2020 19:00:00 2,1 1,5 0 0 8 4 N -
17.01.2020 18:00:00 2,8 1,9 4 2 9 5 S 0,0
17.01.2020 17:00:00 3,9 2,7 2 1 9 5 SSW 0,0
17.01.2020 16:00:00 4,5 2,4 5 3 11 6 SSW 0,0
17.01.2020 15:00:00 4,2 2,7 9 5 31 17 NNE 1,0
17.01.2020 14:00:00 5,8 4,6 2 1 15 8 ENE 2,0
17.01.2020 13:00:00 6,6 3,4 8 4 50 27 NNW -
17.01.2020 12:00:00 6,8 4,6 18 10 37 20 N 0,6
17.01.2020 11:00:00 6,1 1,8 4 2 11 6 S 0,0
17.01.2020 10:00:00 3,1 0,7 0 0 5 3 N 0,0
17.01.2020 09:00:00 2,7 -0,1 2 1 11 6 WNW 0,0
17.01.2020 08:00:00 3,7 -0,3 2 1 22 12 NE 0,0
17.01.2020 07:00:00 5,0 0,2 4 2 18 10 S -
17.01.2020 06:00:00 7,1 0,3 9 5 18 10 S 0,0
17.01.2020 05:00:00 9,1 0,0 8 4 28 15 NW 0,0
17.01.2020 04:00:00 4,7 1,2 2 1 11 6 N 0,0
17.01.2020 03:00:00 4,5 1,0 4 2 9 5 SSW 0,0
17.01.2020 02:00:00 4,9 0,7 4 2 9 5 S 0,0
17.01.2020 01:00:00 5,9 0,6 5 3 13 7 S -
17.01.2020 00:00:00 7,3 0,5 5 3 24 13 NE 0,0
16.01.2020 23:00:00 3,3 -0,2 4 2 9 5 S 0,0
16.01.2020 22:00:00 4,2 -1,0 2 1 21 11 WNW 0,0
16.01.2020 21:00:00 4,7 -1,1 4 2 21 11 SSW 0,0
16.01.2020 20:00:00 3,8 -1,8 4 2 13 7 SW 0,0
16.01.2020 19:00:00 4,8 -1,9 2 1 11 6 W -
16.01.2020 18:00:00 5,3 -0,8 4 2 8 4 SSW 0,0
16.01.2020 17:00:00 8,0 -2,1 0 0 13 7 N 0,0
16.01.2020 16:00:00 11,3 -1,8 8 4 11 6 SSE 0,0
16.01.2020 15:00:00 15,7 -3,3 4 2 9 5 S 0,0
16.01.2020 14:00:00 15,3 -3,1 2 1 8 4 S 0,0
16.01.2020 13:00:00 12,5 -3,0 2 1 5 3 SSE -
16.01.2020 12:00:00 8,6 -2,7 2 1 8 4 SE 0,0
16.01.2020 11:00:00 1,4 -0,7 2 1 8 4 SE 0,0
16.01.2020 10:00:00 -2,8 -3,8 0 0 5 3 N 0,0
16.01.2020 09:00:00 -3,1 -3,9 4 2 8 4 S 0,0
16.01.2020 08:00:00 -2,9 -4,0 2 1 8 4 NNE 0,0
16.01.2020 07:00:00 -3,2 -4,3 4 2 8 4 S -
16.01.2020 06:00:00 -2,2 -3,5 4 2 9 5 W 0,0
16.01.2020 05:00:00 -2,5 -3,8 2 1 8 4 E 0,0
16.01.2020 04:00:00 -1,8 -3,1 2 1 8 4 NNW 0,0
16.01.2020 03:00:00 -1,6 -3,0 0 0 8 4 N 0,0
16.01.2020 02:00:00 -1,2 -2,8 2 1 5 3 NNE 0,0
16.01.2020 01:00:00 -0,8 -2,5 4 2 8 4 N -
16.01.2020 00:00:00 -0,4 -2,0 0 0 8 4 N 0,0
15.01.2020 23:00:00 0,4 -1,8 4 2 8 4 SE 0,0
15.01.2020 22:00:00 0,9 -1,5 0 0 8 4 N 0,0
15.01.2020 21:00:00 1,3 -1,3 2 1 4 2 ESE 0,0
15.01.2020 20:00:00 2,5 -1,3 0 0 4 2 N 0,0
15.01.2020 19:00:00 3,4 -0,4 0 0 5 3 N -
15.01.2020 18:00:00 6,5 -0,7 4 2 18 10 SSW 0,0
15.01.2020 17:00:00 12,8 -2,7 8 4 24 13 NE 0,0
15.01.2020 16:00:00 13,3 -3,1 4 2 13 7 ENE 0,0
15.01.2020 15:00:00 16,8 -3,4 4 2 13 7 S 0,0
15.01.2020 14:00:00 14,6 -2,4 4 2 22 12 SSE 0,0
15.01.2020 13:00:00 12,1 -1,8 5 3 11 6 SE -
15.01.2020 12:00:00 8,6 -2,1 4 2 8 4 SSE 0,0
15.01.2020 11:00:00 3,2 -1,0 2 1 9 5 S 0,0
15.01.2020 10:00:00 -1,5 -3,9 2 1 9 5 S 0,0
15.01.2020 09:00:00 -1,6 -4,0 4 2 8 4 N 0,0
15.01.2020 08:00:00 -1,8 -4,0 4 2 16 9 S 0,0
15.01.2020 07:00:00 -2,1 -4,0 2 1 13 7 E -
15.01.2020 06:00:00 -2,0 -4,3 2 1 16 9 S 0,0
15.01.2020 05:00:00 -2,0 -4,0 2 1 11 6 W 0,0
15.01.2020 04:00:00 -1,7 -3,9 4 2 11 6 S 0,0
15.01.2020 03:00:00 -0,8 -3,3 4 2 9 5 SW 0,0
15.01.2020 02:00:00 -0,7 -3,2 4 2 11 6 N 0,0
15.01.2020 01:00:00 -0,7 -3,4 4 2 15 8 W -
15.01.2020 00:00:00 -0,6 -3,6 8 4 15 8 SSW 0,0
14.01.2020 23:00:00 -0,4 -3,3 4 2 13 7 NE 0,0
14.01.2020 22:00:00 0,1 -2,9 4 2 11 6 NNW 0,0
14.01.2020 21:00:00 1,0 -2,8 4 2 8 4 SSW 0,0
14.01.2020 20:00:00 1,9 -2,1 4 2 8 4 NE 0,0
14.01.2020 19:00:00 3,4 -2,6 4 2 13 7 SSW -
14.01.2020 18:00:00 3,9 -1,9 2 1 9 5 SE 0,0
14.01.2020 17:00:00 6,8 -2,1 0 0 11 6 N 0,0
14.01.2020 16:00:00 11,1 -2,4 8 4 13 7 S 0,0
14.01.2020 15:00:00 17,2 -5,3 2 1 8 4 E 0,0
14.01.2020 14:00:00 16,2 -3,9 2 1 8 4 S 0,0
14.01.2020 13:00:00 13,7 -4,0 0 0 8 4 N -
14.01.2020 12:00:00 10,0 -2,3 0 0 5 3 N 0,0
14.01.2020 11:00:00 2,8 -1,4 2 1 8 4 E 0,0
14.01.2020 10:00:00 -1,0 -3,7 4 2 13 7 WNW 0,0
14.01.2020 09:00:00 -2,3 -4,0 4 2 11 6 NNE 0,0
14.01.2020 08:00:00 -2,7 -4,4 4 2 9 5 N 0,0
14.01.2020 07:00:00 -2,8 -4,5 4 2 8 4 S -
14.01.2020 06:00:00 -2,5 -4,2 4 2 11 6 NNW 0,0
14.01.2020 05:00:00 -3,2 -4,6 2 1 11 6 SE 0,0
14.01.2020 04:00:00 -2,7 -4,1 2 1 8 4 S 0,0
14.01.2020 03:00:00 -2,5 -4,1 2 1 9 5 SW 0,0
14.01.2020 02:00:00 -2,0 -4,0 2 1 9 5 W 0,0
14.01.2020 01:00:00 -1,6 -3,5 4 2 8 4 NNE -
14.01.2020 00:00:00 -1,7 -4,0 2 1 8 4 W 0,0
13.01.2020 23:00:00 -1,1 -3,8 0 0 8 4 N 0,0
13.01.2020 22:00:00 -0,4 -3,1 4 2 8 4 W 0,0
13.01.2020 21:00:00 0,1 -3,5 2 1 5 3 SSE 0,0
13.01.2020 20:00:00 1,6 -2,5 4 2 9 5 NNE 0,0
13.01.2020 19:00:00 3,0 -3,2 2 1 11 6 NE -
13.01.2020 18:00:00 4,9 -1,6 4 2 11 6 WNW 0,0
13.01.2020 17:00:00 8,0 0,9 2 1 8 4 SW 0,0
13.01.2020 16:00:00 10,6 -1,2 4 2 8 4 S 0,0
13.01.2020 15:00:00 11,8 -4,0 5 3 9 5 SSW 0,0
13.01.2020 14:00:00 12,6 -5,5 0 0 5 3 N 0,0
13.01.2020 13:00:00 9,0 -2,9 2 1 8 4 S 0,0
13.01.2020 12:00:00 - - - - - - - -
13.01.2020 11:00:00 -0,8 -2,2 0 0 9 5 N 0,0
13.01.2020 10:00:00 -3,4 -4,2 4 2 8 4 N 0,0
13.01.2020 09:00:00 -4,9 -5,7 0 0 4 2 N 0,0
13.01.2020 08:00:00 -4,9 -5,9 2 1 4 2 SSE 0,0
13.01.2020 07:00:00 -4,7 -5,5 0 0 4 2 N -
13.01.2020 06:00:00 -4,6 -5,3 2 1 4 2 SSE 0,0
13.01.2020 05:00:00 -4,4 -5,5 0 0 4 2 N 0,0
13.01.2020 04:00:00 -3,9 -5,0 0 0 8 4 N 0,0
13.01.2020 03:00:00 -3,6 -4,9 2 1 8 4 W 0,0
13.01.2020 02:00:00 -3,1 -4,1 0 0 5 3 N 0,0
13.01.2020 01:00:00 -2,8 -3,9 0 0 5 3 N -
13.01.2020 00:00:00 -2,2 -3,5 0 0 4 2 N 0,0
12.01.2020 23:00:00 -1,6 -3,3 2 1 5 3 S 0,0
12.01.2020 22:00:00 -0,7 -2,8 0 0 8 4 N 0,0
12.01.2020 21:00:00 0,0 -2,2 4 2 8 4 E 0,0
12.01.2020 20:00:00 0,0 -2,4 2 1 8 4 E 0,0
12.01.2020 19:00:00 0,4 -2,7 2 1 8 4 N -
12.01.2020 18:00:00 1,7 -2,6 0 0 8 4 N 0,0
12.01.2020 17:00:00 4,2 -2,0 0 0 11 6 N 0,0
12.01.2020 16:00:00 7,7 -1,5 8 4 18 10 SSW 0,0
12.01.2020 15:00:00 9,7 -1,4 11 6 26 14 NNE 0,0
12.01.2020 14:00:00 9,6 -5,1 8 4 13 7 N 0,0

tt = Température de l'air
td = dewpoint
ff = Vitesse du vent
fx = gusts
dd = Direction du vent
rr = Quantités de précipitations

stations d'obs. à proximité